sensor_id;sensor_type;location;lat;lon;timestamp;temperature;humidity
20057;DHT22;10189;49.546;7.906;2023-04-08T00:00:12;5.80;99.90
20057;DHT22;10189;49.546;7.906;2023-04-08T00:02:39;5.70;99.90
20057;DHT22;10189;49.546;7.906;2023-04-08T00:05:06;5.70;99.90
20057;DHT22;10189;49.546;7.906;2023-04-08T00:07:32;5.80;99.90
20057;DHT22;10189;49.546;7.906;2023-04-08T00:09:58;5.70;99.90
20057;DHT22;10189;49.546;7.906;2023-04-08T00:12:24;5.80;99.90
20057;DHT22;10189;49.546;7.906;2023-04-08T00:14:51;5.80;99.90
20057;DHT22;10189;49.546;7.906;2023-04-08T00:17:17;5.90;99.90
20057;DHT22;10189;49.546;7.906;2023-04-08T00:19:43;5.90;99.90
20057;DHT22;10189;49.546;7.906;2023-04-08T00:22:10;5.80;99.90
20057;DHT22;10189;49.546;7.906;2023-04-08T00:24:36;5.80;99.90
20057;DHT22;10189;49.546;7.906;2023-04-08T00:27:02;5.80;99.90
20057;DHT22;10189;49.546;7.906;2023-04-08T00:29:28;5.80;99.90
20057;DHT22;10189;49.546;7.906;2023-04-08T00:31:54;5.70;99.90
20057;DHT22;10189;49.546;7.906;2023-04-08T00:34:22;5.80;99.90
20057;DHT22;10189;49.546;7.906;2023-04-08T00:36:48;5.80;99.90
20057;DHT22;10189;49.546;7.906;2023-04-08T00:39:14;5.80;99.90
20057;DHT22;10189;49.546;7.906;2023-04-08T00:41:40;5.80;99.90
20057;DHT22;10189;49.546;7.906;2023-04-08T00:44:06;5.80;99.90
20057;DHT22;10189;49.546;7.906;2023-04-08T00:46:38;5.80;99.90
20057;DHT22;10189;49.546;7.906;2023-04-08T00:49:05;5.80;99.90
20057;DHT22;10189;49.546;7.906;2023-04-08T00:51:34;5.80;99.90
20057;DHT22;10189;49.546;7.906;2023-04-08T00:54:03;5.80;99.90
20057;DHT22;10189;49.546;7.906;2023-04-08T00:56:31;5.80;99.90
20057;DHT22;10189;49.546;7.906;2023-04-08T00:58:59;5.80;99.90
20057;DHT22;10189;49.546;7.906;2023-04-08T01:10:00;5.80;99.90
20057;DHT22;10189;49.546;7.906;2023-04-08T01:12:31;5.80;99.90
20057;DHT22;10189;49.546;7.906;2023-04-08T01:15:06;5.80;99.90
20057;DHT22;10189;49.546;7.906;2023-04-08T01:17:34;5.80;99.90
20057;DHT22;10189;49.546;7.906;2023-04-08T01:20:03;5.90;99.90
20057;DHT22;10189;49.546;7.906;2023-04-08T01:23:36;6.00;99.90
20057;DHT22;10189;49.546;7.906;2023-04-08T01:25:58;6.00;99.90
20057;DHT22;10189;49.546;7.906;2023-04-08T01:28:28;6.00;99.90
20057;DHT22;10189;49.546;7.906;2023-04-08T01:30:59;6.00;99.90
20057;DHT22;10189;49.546;7.906;2023-04-08T01:33:28;6.00;99.90
20057;DHT22;10189;49.546;7.906;2023-04-08T01:35:56;6.00;99.90
20057;DHT22;10189;49.546;7.906;2023-04-08T01:38:24;6.00;99.90
20057;DHT22;10189;49.546;7.906;2023-04-08T01:40:52;6.00;99.90
20057;DHT22;10189;49.546;7.906;2023-04-08T01:43:21;6.00;99.90
20057;DHT22;10189;49.546;7.906;2023-04-08T01:45:49;6.00;99.90
20057;DHT22;10189;49.546;7.906;2023-04-08T01:48:19;5.90;99.90
20057;DHT22;10189;49.546;7.906;2023-04-08T01:50:46;5.90;99.90
20057;DHT22;10189;49.546;7.906;2023-04-08T01:53:12;6.00;99.90
20057;DHT22;10189;49.546;7.906;2023-04-08T01:55:40;6.00;99.90
20057;DHT22;10189;49.546;7.906;2023-04-08T01:58:10;6.00;99.90
20057;DHT22;10189;49.546;7.906;2023-04-08T02:00:41;5.90;99.90
20057;DHT22;10189;49.546;7.906;2023-04-08T02:03:11;5.90;99.90
20057;DHT22;10189;49.546;7.906;2023-04-08T02:05:39;6.00;99.90
20057;DHT22;10189;49.546;7.906;2023-04-08T02:08:05;5.90;99.90
20057;DHT22;10189;49.546;7.906;2023-04-08T02:10:31;6.00;99.90
20057;DHT22;10189;49.546;7.906;2023-04-08T02:12:57;6.00;99.90
20057;DHT22;10189;49.546;7.906;2023-04-08T02:15:25;5.90;99.90
20057;DHT22;10189;49.546;7.906;2023-04-08T02:18:06;6.00;99.90
20057;DHT22;10189;49.546;7.906;2023-04-08T02:20:49;6.00;99.90
20057;DHT22;10189;49.546;7.906;2023-04-08T02:23:24;6.00;99.90
20057;DHT22;10189;49.546;7.906;2023-04-08T02:25:55;5.90;99.90
20057;DHT22;10189;49.546;7.906;2023-04-08T02:28:25;5.90;99.90
20057;DHT22;10189;49.546;7.906;2023-04-08T02:30:53;5.90;99.90
20057;DHT22;10189;49.546;7.906;2023-04-08T02:33:22;5.90;99.90
20057;DHT22;10189;49.546;7.906;2023-04-08T02:35:51;5.80;99.90
20057;DHT22;10189;49.546;7.906;2023-04-08T02:38:20;5.90;99.90
20057;DHT22;10189;49.546;7.906;2023-04-08T02:40:48;5.80;99.90
20057;DHT22;10189;49.546;7.906;2023-04-08T02:43:15;5.90;99.90
20057;DHT22;10189;49.546;7.906;2023-04-08T02:45:42;5.80;99.90
20057;DHT22;10189;49.546;7.906;2023-04-08T02:48:09;5.80;99.90
20057;DHT22;10189;49.546;7.906;2023-04-08T02:50:35;5.80;99.90
20057;DHT22;10189;49.546;7.906;2023-04-08T02:53:02;5.80;99.90
20057;DHT22;10189;49.546;7.906;2023-04-08T02:55:30;5.80;99.90
20057;DHT22;10189;49.546;7.906;2023-04-08T02:57:56;5.80;99.90
20057;DHT22;10189;49.546;7.906;2023-04-08T03:00:22;5.80;99.90
20057;DHT22;10189;49.546;7.906;2023-04-08T03:02:47;5.80;99.90
20057;DHT22;10189;49.546;7.906;2023-04-08T03:05:13;5.70;99.90
20057;DHT22;10189;49.546;7.906;2023-04-08T03:07:41;5.80;99.90
20057;DHT22;10189;49.546;7.906;2023-04-08T03:10:07;5.80;99.90
20057;DHT22;10189;49.546;7.906;2023-04-08T03:12:33;5.80;99.90
20057;DHT22;10189;49.546;7.906;2023-04-08T03:14:59;5.80;99.90
20057;DHT22;10189;49.546;7.906;2023-04-08T03:17:26;5.70;99.90
20057;DHT22;10189;49.546;7.906;2023-04-08T03:19:52;5.70;99.90
20057;DHT22;10189;49.546;7.906;2023-04-08T03:22:18;5.70;99.90
20057;DHT22;10189;49.546;7.906;2023-04-08T03:24:44;5.70;99.90
20057;DHT22;10189;49.546;7.906;2023-04-08T03:27:10;5.70;99.90
20057;DHT22;10189;49.546;7.906;2023-04-08T03:29:37;5.70;99.90
20057;DHT22;10189;49.546;7.906;2023-04-08T03:32:03;5.70;99.90
20057;DHT22;10189;49.546;7.906;2023-04-08T03:34:29;5.70;99.90
20057;DHT22;10189;49.546;7.906;2023-04-08T03:36:55;5.70;99.90
20057;DHT22;10189;49.546;7.906;2023-04-08T03:39:20;5.70;99.90
20057;DHT22;10189;49.546;7.906;2023-04-08T03:41:46;5.70;99.90
20057;DHT22;10189;49.546;7.906;2023-04-08T03:44:12;5.70;99.90
20057;DHT22;10189;49.546;7.906;2023-04-08T03:46:38;5.70;99.90
20057;DHT22;10189;49.546;7.906;2023-04-08T03:49:04;5.80;99.90
20057;DHT22;10189;49.546;7.906;2023-04-08T03:51:30;5.80;99.90
20057;DHT22;10189;49.546;7.906;2023-04-08T03:53:56;5.80;99.90
20057;DHT22;10189;49.546;7.906;2023-04-08T03:56:22;5.80;99.90
20057;DHT22;10189;49.546;7.906;2023-04-08T03:58:49;5.80;99.90
20057;DHT22;10189;49.546;7.906;2023-04-08T04:01:15;5.70;99.90
20057;DHT22;10189;49.546;7.906;2023-04-08T04:03:41;5.70;99.90
20057;DHT22;10189;49.546;7.906;2023-04-08T04:06:07;5.70;99.90
20057;DHT22;10189;49.546;7.906;2023-04-08T04:08:33;5.70;99.90
20057;DHT22;10189;49.546;7.906;2023-04-08T04:10:59;5.70;99.90
20057;DHT22;10189;49.546;7.906;2023-04-08T04:13:25;5.60;99.90
20057;DHT22;10189;49.546;7.906;2023-04-08T04:15:51;5.60;99.90
20057;DHT22;10189;49.546;7.906;2023-04-08T04:18:17;5.60;99.90
20057;DHT22;10189;49.546;7.906;2023-04-08T04:20:43;5.60;99.90
20057;DHT22;10189;49.546;7.906;2023-04-08T04:23:09;5.60;99.90
20057;DHT22;10189;49.546;7.906;2023-04-08T04:25:35;5.60;99.90
20057;DHT22;10189;49.546;7.906;2023-04-08T04:28:01;5.60;99.90
20057;DHT22;10189;49.546;7.906;2023-04-08T04:30:28;5.50;99.90
20057;DHT22;10189;49.546;7.906;2023-04-08T04:32:53;5.50;99.90
20057;DHT22;10189;49.546;7.906;2023-04-08T04:35:20;5.50;99.90
20057;DHT22;10189;49.546;7.906;2023-04-08T04:37:46;5.50;99.90
20057;DHT22;10189;49.546;7.906;2023-04-08T04:40:14;5.50;99.90
20057;DHT22;10189;49.546;7.906;2023-04-08T04:42:40;5.50;99.90
20057;DHT22;10189;49.546;7.906;2023-04-08T04:45:07;5.50;99.90
20057;DHT22;10189;49.546;7.906;2023-04-08T04:47:34;5.50;99.90
20057;DHT22;10189;49.546;7.906;2023-04-08T04:50:00;5.50;99.90
20057;DHT22;10189;49.546;7.906;2023-04-08T04:52:26;5.50;99.90
20057;DHT22;10189;49.546;7.906;2023-04-08T04:54:52;5.50;99.90
20057;DHT22;10189;49.546;7.906;2023-04-08T04:57:18;5.50;99.90
20057;DHT22;10189;49.546;7.906;2023-04-08T04:59:44;5.50;99.90
20057;DHT22;10189;49.546;7.906;2023-04-08T05:02:10;5.50;99.90
20057;DHT22;10189;49.546;7.906;2023-04-08T05:04:35;5.40;99.90
20057;DHT22;10189;49.546;7.906;2023-04-08T05:07:01;5.50;99.90
20057;DHT22;10189;49.546;7.906;2023-04-08T05:09:28;5.50;99.90
20057;DHT22;10189;49.546;7.906;2023-04-08T05:11:55;5.50;99.90
20057;DHT22;10189;49.546;7.906;2023-04-08T05:14:21;5.50;99.90
20057;DHT22;10189;49.546;7.906;2023-04-08T05:16:47;5.50;99.90
20057;DHT22;10189;49.546;7.906;2023-04-08T05:19:13;5.60;99.90
20057;DHT22;10189;49.546;7.906;2023-04-08T05:21:39;5.60;99.90
20057;DHT22;10189;49.546;7.906;2023-04-08T05:24:06;5.70;99.90
20057;DHT22;10189;49.546;7.906;2023-04-08T05:26:32;5.70;99.90
20057;DHT22;10189;49.546;7.906;2023-04-08T05:28:58;5.80;99.90
20057;DHT22;10189;49.546;7.906;2023-04-08T05:31:24;5.80;99.90
20057;DHT22;10189;49.546;7.906;2023-04-08T05:33:50;5.80;99.90
20057;DHT22;10189;49.546;7.906;2023-04-08T05:36:15;5.90;99.90
20057;DHT22;10189;49.546;7.906;2023-04-08T05:38:41;5.90;99.90
20057;DHT22;10189;49.546;7.906;2023-04-08T05:41:09;6.00;99.90
20057;DHT22;10189;49.546;7.906;2023-04-08T05:43:35;6.00;99.90
20057;DHT22;10189;49.546;7.906;2023-04-08T05:46:08;6.00;99.90
20057;DHT22;10189;49.546;7.906;2023-04-08T05:48:35;6.10;99.90
20057;DHT22;10189;49.546;7.906;2023-04-08T05:51:02;6.20;99.90
20057;DHT22;10189;49.546;7.906;2023-04-08T05:53:28;6.20;99.90
20057;DHT22;10189;49.546;7.906;2023-04-08T05:55:53;6.40;99.90
20057;DHT22;10189;49.546;7.906;2023-04-08T05:58:20;6.50;99.90
20057;DHT22;10189;49.546;7.906;2023-04-08T06:00:46;6.60;99.90
20057;DHT22;10189;49.546;7.906;2023-04-08T06:03:12;6.70;99.90
20057;DHT22;10189;49.546;7.906;2023-04-08T06:05:37;6.80;99.90
20057;DHT22;10189;49.546;7.906;2023-04-08T06:08:03;7.00;99.90
20057;DHT22;10189;49.546;7.906;2023-04-08T06:10:29;7.10;99.90
20057;DHT22;10189;49.546;7.906;2023-04-08T06:12:55;7.30;99.90
20057;DHT22;10189;49.546;7.906;2023-04-08T06:15:21;7.50;99.30
20057;DHT22;10189;49.546;7.906;2023-04-08T06:17:47;7.80;97.80
20057;DHT22;10189;49.546;7.906;2023-04-08T06:20:13;8.20;95.10
20057;DHT22;10189;49.546;7.906;2023-04-08T06:22:39;8.40;92.70
20057;DHT22;10189;49.546;7.906;2023-04-08T06:25:05;8.70;90.50
20057;DHT22;10189;49.546;7.906;2023-04-08T06:27:31;8.90;89.20
20057;DHT22;10189;49.546;7.906;2023-04-08T06:29:57;9.20;88.10
20057;DHT22;10189;49.546;7.906;2023-04-08T06:32:23;9.30;85.70
20057;DHT22;10189;49.546;7.906;2023-04-08T06:34:49;9.30;85.50
20057;DHT22;10189;49.546;7.906;2023-04-08T06:37:15;9.40;85.80
20057;DHT22;10189;49.546;7.906;2023-04-08T06:39:41;9.40;85.40
20057;DHT22;10189;49.546;7.906;2023-04-08T06:42:07;9.50;85.50
20057;DHT22;10189;49.546;7.906;2023-04-08T06:44:42;9.50;83.40
20057;DHT22;10189;49.546;7.906;2023-04-08T06:47:08;9.30;83.70
20057;DHT22;10189;49.546;7.906;2023-04-08T06:49:34;9.00;85.30
20057;DHT22;10189;49.546;7.906;2023-04-08T06:52:02;9.00;85.20
20057;DHT22;10189;49.546;7.906;2023-04-08T06:54:27;9.00;86.10
20057;DHT22;10189;49.546;7.906;2023-04-08T06:56:53;9.10;87.00
20057;DHT22;10189;49.546;7.906;2023-04-08T06:59:19;9.30;85.30
20057;DHT22;10189;49.546;7.906;2023-04-08T07:01:45;9.40;83.90
20057;DHT22;10189;49.546;7.906;2023-04-08T07:04:11;9.50;84.00
20057;DHT22;10189;49.546;7.906;2023-04-08T07:06:37;9.30;83.30
20057;DHT22;10189;49.546;7.906;2023-04-08T07:09:03;9.30;82.60
20057;DHT22;10189;49.546;7.906;2023-04-08T07:11:29;9.40;83.30
20057;DHT22;10189;49.546;7.906;2023-04-08T07:13:55;9.40;82.30
20057;DHT22;10189;49.546;7.906;2023-04-08T07:16:21;9.20;82.90
20057;DHT22;10189;49.546;7.906;2023-04-08T07:18:47;8.90;84.50
20057;DHT22;10189;49.546;7.906;2023-04-08T07:21:13;8.90;85.10
20057;DHT22;10189;49.546;7.906;2023-04-08T07:23:38;8.80;84.70
20057;DHT22;10189;49.546;7.906;2023-04-08T07:26:04;8.60;85.00
20057;DHT22;10189;49.546;7.906;2023-04-08T07:28:31;8.40;86.90
20057;DHT22;10189;49.546;7.906;2023-04-08T07:31:14;8.20;87.40
20057;DHT22;10189;49.546;7.906;2023-04-08T07:33:41;8.20;86.90
20057;DHT22;10189;49.546;7.906;2023-04-08T07:36:09;8.40;85.30
20057;DHT22;10189;49.546;7.906;2023-04-08T07:38:37;8.30;85.80
20057;DHT22;10189;49.546;7.906;2023-04-08T07:41:03;8.40;85.90
20057;DHT22;10189;49.546;7.906;2023-04-08T07:43:32;8.70;84.60
20057;DHT22;10189;49.546;7.906;2023-04-08T07:46:02;9.00;84.00
20057;DHT22;10189;49.546;7.906;2023-04-08T07:48:30;9.30;83.00
20057;DHT22;10189;49.546;7.906;2023-04-08T07:50:56;9.60;80.70
20057;DHT22;10189;49.546;7.906;2023-04-08T07:53:23;9.80;80.10
20057;DHT22;10189;49.546;7.906;2023-04-08T07:55:51;9.80;78.80
20057;DHT22;10189;49.546;7.906;2023-04-08T07:58:16;10.20;77.80
20057;DHT22;10189;49.546;7.906;2023-04-08T08:00:42;10.30;77.70
20057;DHT22;10189;49.546;7.906;2023-04-08T08:03:08;10.30;78.50
20057;DHT22;10189;49.546;7.906;2023-04-08T08:05:35;10.50;77.40
20057;DHT22;10189;49.546;7.906;2023-04-08T08:08:02;10.70;76.40
20057;DHT22;10189;49.546;7.906;2023-04-08T08:10:28;10.90;75.00
20057;DHT22;10189;49.546;7.906;2023-04-08T08:12:54;11.10;76.50
20057;DHT22;10189;49.546;7.906;2023-04-08T08:15:20;11.10;73.70
20057;DHT22;10189;49.546;7.906;2023-04-08T08:17:46;11.00;75.10
20057;DHT22;10189;49.546;7.906;2023-04-08T08:20:15;11.10;74.20
20057;DHT22;10189;49.546;7.906;2023-04-08T08:22:41;10.90;74.00
20057;DHT22;10189;49.546;7.906;2023-04-08T08:25:10;11.00;75.60
20057;DHT22;10189;49.546;7.906;2023-04-08T08:27:36;11.10;73.80
20057;DHT22;10189;49.546;7.906;2023-04-08T08:30:02;10.90;73.20
20057;DHT22;10189;49.546;7.906;2023-04-08T08:32:29;10.80;74.70
20057;DHT22;10189;49.546;7.906;2023-04-08T08:34:55;10.70;74.00
20057;DHT22;10189;49.546;7.906;2023-04-08T08:37:21;10.50;74.20
20057;DHT22;10189;49.546;7.906;2023-04-08T08:39:47;10.70;75.00
20057;DHT22;10189;49.546;7.906;2023-04-08T08:42:22;10.50;73.90
20057;DHT22;10189;49.546;7.906;2023-04-08T08:44:50;10.20;75.70
20057;DHT22;10189;49.546;7.906;2023-04-08T08:47:17;10.10;75.80
20057;DHT22;10189;49.546;7.906;2023-04-08T08:49:44;10.00;76.70
20057;DHT22;10189;49.546;7.906;2023-04-08T08:52:11;9.90;76.80
20057;DHT22;10189;49.546;7.906;2023-04-08T08:54:41;9.80;75.90
20057;DHT22;10189;49.546;7.906;2023-04-08T08:57:20;9.90;77.40
20057;DHT22;10189;49.546;7.906;2023-04-08T08:59:46;10.10;76.10
20057;DHT22;10189;49.546;7.906;2023-04-08T09:02:29;10.20;74.90
20057;DHT22;10189;49.546;7.906;2023-04-08T09:05:01;10.30;75.10
20057;DHT22;10189;49.546;7.906;2023-04-08T09:07:29;10.60;75.10
20057;DHT22;10189;49.546;7.906;2023-04-08T09:09:57;10.80;72.60
20057;DHT22;10189;49.546;7.906;2023-04-08T09:12:24;11.00;72.60
20057;DHT22;10189;49.546;7.906;2023-04-08T09:15:22;11.20;71.70
20057;DHT22;10189;49.546;7.906;2023-04-08T09:17:51;11.30;70.80
20057;DHT22;10189;49.546;7.906;2023-04-08T09:20:17;11.40;70.70
20057;DHT22;10189;49.546;7.906;2023-04-08T09:23:00;11.40;70.90
20057;DHT22;10189;49.546;7.906;2023-04-08T09:25:29;11.60;71.40
20057;DHT22;10189;49.546;7.906;2023-04-08T09:27:59;11.60;68.80
20057;DHT22;10189;49.546;7.906;2023-04-08T09:30:26;11.70;68.60
20057;DHT22;10189;49.546;7.906;2023-04-08T09:32:56;11.70;68.30
20057;DHT22;10189;49.546;7.906;2023-04-08T09:35:23;11.80;68.00
20057;DHT22;10189;49.546;7.906;2023-04-08T09:37:51;11.70;68.20
20057;DHT22;10189;49.546;7.906;2023-04-08T09:40:17;11.70;68.60
20057;DHT22;10189;49.546;7.906;2023-04-08T09:42:47;11.70;69.50
20057;DHT22;10189;49.546;7.906;2023-04-08T09:45:17;11.60;70.40
20057;DHT22;10189;49.546;7.906;2023-04-08T09:47:56;11.40;70.30
20057;DHT22;10189;49.546;7.906;2023-04-08T09:50:30;11.40;71.10
20057;DHT22;10189;49.546;7.906;2023-04-08T09:53:07;11.40;70.30
20057;DHT22;10189;49.546;7.906;2023-04-08T09:55:36;11.40;71.60
20057;DHT22;10189;49.546;7.906;2023-04-08T09:58:18;11.20;71.90
20057;DHT22;10189;49.546;7.906;2023-04-08T10:00:53;10.80;73.90
20057;DHT22;10189;49.546;7.906;2023-04-08T10:03:29;10.60;74.10
20057;DHT22;10189;49.546;7.906;2023-04-08T10:06:01;10.80;73.70
20057;DHT22;10189;49.546;7.906;2023-04-08T10:08:29;11.20;64.30
20057;DHT22;10189;49.546;7.906;2023-04-08T10:10:57;11.40;63.00
20057;DHT22;10189;49.546;7.906;2023-04-08T10:13:24;11.40;60.60
20057;DHT22;10189;49.546;7.906;2023-04-08T10:18:45;11.40;62.60
20057;DHT22;10189;49.546;7.906;2023-04-08T10:21:39;11.10;61.60
20057;DHT22;10189;49.546;7.906;2023-04-08T10:24:24;11.00;63.30
20057;DHT22;10189;49.546;7.906;2023-04-08T10:26:50;11.00;63.60
20057;DHT22;10189;49.546;7.906;2023-04-08T10:31:42;11.00;65.50
20057;DHT22;10189;49.546;7.906;2023-04-08T10:34:18;11.20;65.60
20057;DHT22;10189;49.546;7.906;2023-04-08T10:36:46;11.50;63.50
20057;DHT22;10189;49.546;7.906;2023-04-08T10:39:15;11.90;61.80
20057;DHT22;10189;49.546;7.906;2023-04-08T10:41:46;12.10;60.40
20057;DHT22;10189;49.546;7.906;2023-04-08T10:44:23;12.40;58.70
20057;DHT22;10189;49.546;7.906;2023-04-08T10:46:53;12.40;57.30
20057;DHT22;10189;49.546;7.906;2023-04-08T10:49:20;12.70;56.80
20057;DHT22;10189;49.546;7.906;2023-04-08T10:51:47;12.80;53.90
20057;DHT22;10189;49.546;7.906;2023-04-08T10:54:17;12.70;53.40
20057;DHT22;10189;49.546;7.906;2023-04-08T10:56:45;12.50;55.30
20057;DHT22;10189;49.546;7.906;2023-04-08T10:59:26;12.60;54.90
20057;DHT22;10189;49.546;7.906;2023-04-08T11:01:53;12.40;56.60
20057;DHT22;10189;49.546;7.906;2023-04-08T11:04:19;12.20;58.10
20057;DHT22;10189;49.546;7.906;2023-04-08T11:06:48;11.80;59.00
20057;DHT22;10189;49.546;7.906;2023-04-08T11:09:19;11.30;61.20
20057;DHT22;10189;49.546;7.906;2023-04-08T11:11:52;11.20;63.60
20057;DHT22;10189;49.546;7.906;2023-04-08T11:14:18;11.00;64.40
20057;DHT22;10189;49.546;7.906;2023-04-08T11:16:46;10.60;66.60
20057;DHT22;10189;49.546;7.906;2023-04-08T11:19:12;10.80;67.50
20057;DHT22;10189;49.546;7.906;2023-04-08T11:21:38;10.80;66.60
20057;DHT22;10189;49.546;7.906;2023-04-08T11:24:11;10.80;67.50
20057;DHT22;10189;49.546;7.906;2023-04-08T11:26:38;10.70;66.90
20057;DHT22;10189;49.546;7.906;2023-04-08T11:29:05;10.80;67.00
20057;DHT22;10189;49.546;7.906;2023-04-08T11:31:37;11.10;67.00
20057;DHT22;10189;49.546;7.906;2023-04-08T11:34:03;11.30;66.90
20057;DHT22;10189;49.546;7.906;2023-04-08T11:36:28;11.60;67.70
20057;DHT22;10189;49.546;7.906;2023-04-08T11:38:54;11.90;64.50
20057;DHT22;10189;49.546;7.906;2023-04-08T11:41:20;12.20;59.00
20057;DHT22;10189;49.546;7.906;2023-04-08T11:43:54;12.40;55.00
20057;DHT22;10189;49.546;7.906;2023-04-08T11:46:22;12.30;54.30
20057;DHT22;10189;49.546;7.906;2023-04-08T11:49:03;12.30;53.10
20057;DHT22;10189;49.546;7.906;2023-04-08T11:51:31;12.50;52.60
20057;DHT22;10189;49.546;7.906;2023-04-08T11:53:59;12.70;51.30
20057;DHT22;10189;49.546;7.906;2023-04-08T11:56:28;12.60;48.90
20057;DHT22;10189;49.546;7.906;2023-04-08T11:58:55;12.30;50.50
20057;DHT22;10189;49.546;7.906;2023-04-08T12:01:21;12.10;53.50
20057;DHT22;10189;49.546;7.906;2023-04-08T12:03:58;12.10;52.80
20057;DHT22;10189;49.546;7.906;2023-04-08T12:06:26;12.20;54.30
20057;DHT22;10189;49.546;7.906;2023-04-08T12:08:55;12.20;56.70
20057;DHT22;10189;49.546;7.906;2023-04-08T12:11:22;12.20;58.40
20057;DHT22;10189;49.546;7.906;2023-04-08T12:13:48;12.20;57.80
20057;DHT22;10189;49.546;7.906;2023-04-08T12:16:15;12.40;55.00
20057;DHT22;10189;49.546;7.906;2023-04-08T12:18:41;12.40;56.20
20057;DHT22;10189;49.546;7.906;2023-04-08T12:21:07;12.30;58.90
20057;DHT22;10189;49.546;7.906;2023-04-08T12:23:33;12.20;58.50
20057;DHT22;10189;49.546;7.906;2023-04-08T12:25:59;12.40;59.60
20057;DHT22;10189;49.546;7.906;2023-04-08T12:28:24;12.60;48.90
20057;DHT22;10189;49.546;7.906;2023-04-08T12:30:50;12.70;50.40
20057;DHT22;10189;49.546;7.906;2023-04-08T12:33:16;12.90;50.60
20057;DHT22;10189;49.546;7.906;2023-04-08T12:35:42;12.80;50.30
20057;DHT22;10189;49.546;7.906;2023-04-08T12:38:09;12.80;54.20
20057;DHT22;10189;49.546;7.906;2023-04-08T12:40:35;12.90;51.90
20057;DHT22;10189;49.546;7.906;2023-04-08T12:43:00;13.00;49.60
20057;DHT22;10189;49.546;7.906;2023-04-08T12:45:26;13.10;48.30
20057;DHT22;10189;49.546;7.906;2023-04-08T12:47:52;13.00;49.10
20057;DHT22;10189;49.546;7.906;2023-04-08T12:50:18;13.00;48.50
20057;DHT22;10189;49.546;7.906;2023-04-08T12:52:44;13.00;50.60
20057;DHT22;10189;49.546;7.906;2023-04-08T12:55:10;13.00;51.30
20057;DHT22;10189;49.546;7.906;2023-04-08T12:57:36;12.50;51.50
20057;DHT22;10189;49.546;7.906;2023-04-08T13:00:01;12.60;53.90
20057;DHT22;10189;49.546;7.906;2023-04-08T13:02:28;12.70;51.70
20057;DHT22;10189;49.546;7.906;2023-04-08T13:04:54;12.40;53.80
20057;DHT22;10189;49.546;7.906;2023-04-08T13:07:20;12.20;50.40
20057;DHT22;10189;49.546;7.906;2023-04-08T13:09:46;12.00;53.00
20057;DHT22;10189;49.546;7.906;2023-04-08T13:12:12;12.40;50.50
20057;DHT22;10189;49.546;7.906;2023-04-08T13:14:38;12.40;51.50
20057;DHT22;10189;49.546;7.906;2023-04-08T13:17:04;12.70;54.80
20057;DHT22;10189;49.546;7.906;2023-04-08T13:19:30;12.60;53.40
20057;DHT22;10189;49.546;7.906;2023-04-08T13:21:56;12.60;55.90
20057;DHT22;10189;49.546;7.906;2023-04-08T13:24:22;12.90;54.40
20057;DHT22;10189;49.546;7.906;2023-04-08T13:26:48;12.60;55.00
20057;DHT22;10189;49.546;7.906;2023-04-08T13:29:14;12.80;56.20
20057;DHT22;10189;49.546;7.906;2023-04-08T13:31:40;12.80;55.90
20057;DHT22;10189;49.546;7.906;2023-04-08T13:34:06;12.60;57.20
20057;DHT22;10189;49.546;7.906;2023-04-08T13:36:31;12.30;57.10
20057;DHT22;10189;49.546;7.906;2023-04-08T13:38:57;12.50;56.50
20057;DHT22;10189;49.546;7.906;2023-04-08T13:41:23;12.70;57.20
20057;DHT22;10189;49.546;7.906;2023-04-08T13:43:49;12.80;55.90
20057;DHT22;10189;49.546;7.906;2023-04-08T13:46:15;12.60;55.70
20057;DHT22;10189;49.546;7.906;2023-04-08T13:48:42;12.30;56.90
20057;DHT22;10189;49.546;7.906;2023-04-08T13:51:08;12.40;57.80
20057;DHT22;10189;49.546;7.906;2023-04-08T13:53:34;12.70;58.30
20057;DHT22;10189;49.546;7.906;2023-04-08T13:56:00;12.80;58.50
20057;DHT22;10189;49.546;7.906;2023-04-08T13:58:26;12.60;58.70
20057;DHT22;10189;49.546;7.906;2023-04-08T14:00:52;12.90;57.70
20057;DHT22;10189;49.546;7.906;2023-04-08T14:03:18;13.10;57.40
20057;DHT22;10189;49.546;7.906;2023-04-08T14:05:44;13.20;58.30
20057;DHT22;10189;49.546;7.906;2023-04-08T14:08:10;13.10;57.80
20057;DHT22;10189;49.546;7.906;2023-04-08T14:10:38;13.00;59.10
20057;DHT22;10189;49.546;7.906;2023-04-08T14:13:04;13.00;57.50
20057;DHT22;10189;49.546;7.906;2023-04-08T14:15:30;12.90;57.50
20057;DHT22;10189;49.546;7.906;2023-04-08T14:17:55;12.90;58.40
20057;DHT22;10189;49.546;7.906;2023-04-08T14:20:21;12.80;58.30
20057;DHT22;10189;49.546;7.906;2023-04-08T14:22:47;12.90;58.70
20057;DHT22;10189;49.546;7.906;2023-04-08T14:25:13;12.90;59.90
20057;DHT22;10189;49.546;7.906;2023-04-08T14:27:39;12.70;57.80
20057;DHT22;10189;49.546;7.906;2023-04-08T14:30:06;12.30;60.10
20057;DHT22;10189;49.546;7.906;2023-04-08T14:32:32;12.20;60.70
20057;DHT22;10189;49.546;7.906;2023-04-08T14:35:00;12.30;60.50
20057;DHT22;10189;49.546;7.906;2023-04-08T14:37:26;12.60;60.40
20057;DHT22;10189;49.546;7.906;2023-04-08T14:39:52;12.90;58.50
20057;DHT22;10189;49.546;7.906;2023-04-08T14:42:18;12.70;58.70
20057;DHT22;10189;49.546;7.906;2023-04-08T14:44:44;12.60;59.00
20057;DHT22;10189;49.546;7.906;2023-04-08T14:47:10;12.80;59.20
20057;DHT22;10189;49.546;7.906;2023-04-08T14:49:36;12.90;58.10
20057;DHT22;10189;49.546;7.906;2023-04-08T14:52:02;12.70;58.40
20057;DHT22;10189;49.546;7.906;2023-04-08T14:54:28;13.00;59.30
20057;DHT22;10189;49.546;7.906;2023-04-08T14:56:54;13.20;57.20
20057;DHT22;10189;49.546;7.906;2023-04-08T14:59:20;13.30;57.30
20057;DHT22;10189;49.546;7.906;2023-04-08T15:01:46;13.20;58.20
20057;DHT22;10189;49.546;7.906;2023-04-08T15:04:12;13.20;57.70
20057;DHT22;10189;49.546;7.906;2023-04-08T15:06:37;13.00;56.90
20057;DHT22;10189;49.546;7.906;2023-04-08T15:09:05;12.90;58.40
20057;DHT22;10189;49.546;7.906;2023-04-08T15:11:31;12.70;58.10
20057;DHT22;10189;49.546;7.906;2023-04-08T15:13:57;12.20;59.60
20057;DHT22;10189;49.546;7.906;2023-04-08T15:16:22;12.00;60.10
20057;DHT22;10189;49.546;7.906;2023-04-08T15:18:49;11.90;60.40
20057;DHT22;10189;49.546;7.906;2023-04-08T15:21:14;11.50;61.70
20057;DHT22;10189;49.546;7.906;2023-04-08T15:23:40;11.30;63.10
20057;DHT22;10189;49.546;7.906;2023-04-08T15:26:08;11.20;64.00
20057;DHT22;10189;49.546;7.906;2023-04-08T15:28:35;11.00;64.70
20057;DHT22;10189;49.546;7.906;2023-04-08T15:31:03;11.00;65.20
20057;DHT22;10189;49.546;7.906;2023-04-08T15:33:30;11.00;65.50
20057;DHT22;10189;49.546;7.906;2023-04-08T15:35:58;11.00;66.40
20057;DHT22;10189;49.546;7.906;2023-04-08T15:38:28;10.90;67.50
20057;DHT22;10189;49.546;7.906;2023-04-08T15:40:54;10.90;67.40
20057;DHT22;10189;49.546;7.906;2023-04-08T15:43:20;10.80;69.40
20057;DHT22;10189;49.546;7.906;2023-04-08T15:45:46;10.70;69.60
20057;DHT22;10189;49.546;7.906;2023-04-08T15:48:13;10.60;70.00
20057;DHT22;10189;49.546;7.906;2023-04-08T15:50:39;10.40;70.80
20057;DHT22;10189;49.546;7.906;2023-04-08T15:53:06;10.30;71.60